KADH

Ada Regional Airport

Ada, Oklahoma, USA
METAR KADH 190455Z AUTO 00000KT 10SM CLR 24/21 A2995 RMK AO2
Observed Flight Rules
Sep-19 @ 04:55 UTC (34 minutes ago) Visual Flight Rules
Visibility Clouds
10 miles
  • Clear skies
Temperatures Readings
Current 24°C / 75°F
Dewpoint 21°C / 70°F
Humidity 83%
Altimeter 29.95" Hg
Pressure 1014 hPa
Elevation 308
METAR KADH 190455Z AUTO 00000KT 10SM CLR 24/21 A2995 RMK AO2
Observed Flight Rules
Sep-19 @ 04:55 UTC
(34 minutes ago)
VFR
Clouds
  • Clear skies
Temperature Dewpoint
24°C / 75°F 21°C / 70°F
Humidity Altimeter Pressure
83% 29.95" Hg 1014 hPa